createdAt,value
2024-05-09T00:06:22.474Z,10.03
2024-05-09T00:16:27.456Z,11.10
2024-05-09T00:26:35.060Z,11.27
2024-05-09T00:36:40.107Z,11.07
2024-05-09T00:46:47.885Z,12.00
2024-05-09T00:56:53.617Z,11.87
2024-05-09T01:07:01.257Z,11.53
2024-05-09T01:17:07.303Z,9.93
2024-05-09T01:27:15.000Z,10.07
2024-05-09T01:37:19.957Z,11.07
2024-05-09T01:47:27.712Z,9.80
2024-05-09T01:57:32.776Z,10.27
2024-05-09T02:07:40.916Z,10.47
2024-05-09T02:17:46.114Z,11.27
2024-05-09T02:27:53.841Z,11.50
2024-05-09T02:37:58.809Z,11.47
2024-05-09T02:48:07.199Z,11.93
2024-05-09T02:58:12.692Z,10.93
2024-05-09T03:08:20.329Z,11.93
2024-05-09T03:18:25.313Z,11.50
2024-05-09T03:28:32.904Z,11.73
2024-05-09T03:38:41.801Z,11.53
2024-05-09T03:48:49.563Z,12.13
2024-05-09T03:58:54.539Z,13.13
2024-05-09T04:09:02.161Z,12.33
2024-05-09T04:19:07.318Z,13.70
2024-05-09T04:29:14.974Z,13.27
2024-05-09T04:39:19.981Z,12.43
2024-05-09T04:49:27.759Z,12.93
2024-05-09T04:59:32.725Z,12.87
2024-05-09T05:09:40.370Z,12.57
2024-05-09T05:19:45.389Z,11.10
2024-05-09T05:29:53.001Z,12.43
2024-05-09T05:39:58.245Z,12.93
2024-05-09T05:50:14.481Z,12.03
2024-05-09T06:00:30.154Z,12.00
2024-05-09T06:10:45.340Z,11.67
2024-05-09T06:20:50.396Z,12.30
2024-05-09T06:30:58.078Z,11.70
2024-05-09T06:41:03.063Z,11.67
2024-05-09T06:51:10.838Z,10.27
2024-05-09T07:01:15.894Z,9.40
2024-05-09T07:11:23.620Z,9.13
2024-05-09T07:21:28.672Z,9.23
2024-05-09T07:31:36.279Z,8.15
2024-05-09T07:41:41.241Z,8.25
2024-05-09T07:53:20.366Z,8.98
2024-05-09T08:02:13.933Z,7.93
2024-05-09T08:12:21.590Z,7.20
2024-05-09T08:22:26.497Z,6.60
2024-05-09T08:32:35.143Z,6.82
2024-05-09T08:42:47.277Z,5.82
2024-05-09T08:52:54.900Z,6.90
2024-05-09T09:03:02.628Z,5.75
2024-05-09T09:13:11.311Z,5.50
2024-05-09T09:23:16.419Z,5.38
2024-05-09T09:33:24.086Z,5.32
2024-05-09T09:43:29.458Z,5.32
2024-05-09T09:53:39.070Z,4.45
2024-05-09T10:03:45.507Z,4.72
2024-05-09T10:13:55.009Z,4.35
2024-05-09T10:24:01.341Z,4.50
2024-05-09T10:34:10.673Z,4.15
2024-05-09T10:44:18.572Z,4.57
2024-05-09T10:54:26.211Z,4.10
2024-05-09T11:04:31.341Z,4.85
2024-05-09T11:14:39.080Z,3.88
2024-05-09T11:24:44.180Z,3.80
2024-05-09T11:34:51.788Z,4.57
2024-05-09T11:44:56.711Z,3.83
2024-05-09T11:55:04.442Z,3.10
2024-05-09T12:05:10.308Z,3.05
2024-05-09T12:15:18.280Z,3.17
2024-05-09T12:25:23.187Z,3.08
2024-05-09T12:35:30.748Z,3.95
2024-05-09T12:45:35.798Z,4.30
2024-05-09T12:55:53.124Z,4.10
2024-05-09T13:06:02.024Z,3.53
2024-05-09T13:16:10.062Z,3.10
2024-05-09T13:26:15.079Z,3.40
2024-05-09T13:36:22.737Z,3.70
2024-05-09T13:46:27.844Z,2.95
2024-05-09T13:56:35.392Z,3.47
2024-05-09T14:06:40.483Z,2.95
2024-05-09T14:16:48.456Z,2.75
2024-05-09T14:26:53.466Z,3.83
2024-05-09T14:37:01.512Z,2.60
2024-05-09T14:47:06.997Z,3.17
2024-05-09T14:57:14.615Z,3.10
2024-05-09T15:07:19.652Z,2.88
2024-05-09T15:17:27.476Z,2.72
2024-05-09T15:27:32.554Z,3.00
2024-05-09T15:37:40.321Z,2.75
2024-05-09T15:47:45.443Z,2.67
2024-05-09T15:57:53.121Z,2.92
2024-05-09T16:07:58.166Z,3.00
2024-05-09T16:18:05.938Z,3.00
2024-05-09T16:28:11.215Z,3.00
2024-05-09T16:38:19.039Z,3.10
2024-05-09T16:48:24.110Z,2.63
2024-05-09T16:58:32.392Z,3.00
2024-05-09T17:08:37.970Z,3.13
2024-05-09T17:18:46.379Z,2.60
2024-05-09T17:28:51.490Z,2.80
2024-05-09T17:38:59.649Z,3.05
2024-05-09T17:49:04.809Z,2.97
2024-05-09T17:59:12.466Z,3.30
2024-05-09T18:09:18.508Z,2.90
2024-05-09T18:19:26.279Z,3.10
2024-05-09T18:29:31.441Z,2.95
2024-05-09T18:39:38.992Z,2.80
2024-05-09T18:49:44.167Z,3.13
2024-05-09T18:59:51.837Z,3.38
2024-05-09T19:09:56.846Z,3.00
2024-05-09T19:20:06.034Z,3.10
2024-05-09T19:30:17.823Z,3.30
2024-05-09T19:40:34.667Z,3.30
2024-05-09T19:50:43.806Z,3.10
2024-05-09T20:00:52.533Z,2.83
2024-05-09T20:10:58.728Z,3.10
2024-05-09T20:21:06.897Z,3.28
2024-05-09T20:31:12.772Z,3.75
2024-05-09T20:41:20.374Z,3.17
2024-05-09T20:51:26.401Z,3.55
2024-05-09T21:01:34.904Z,3.70
2024-05-09T21:11:39.933Z,3.67
2024-05-09T21:21:48.011Z,4.10
2024-05-09T21:31:53.357Z,4.70
2024-05-09T21:42:02.642Z,4.57
2024-05-09T21:52:08.137Z,4.78
2024-05-09T22:02:16.065Z,4.80
2024-05-09T22:12:21.057Z,4.65
2024-05-09T22:22:28.783Z,4.72
2024-05-09T22:32:33.969Z,4.72
2024-05-09T22:42:43.256Z,5.07
2024-05-09T22:52:48.223Z,5.28
2024-05-09T23:02:55.834Z,5.57
2024-05-09T23:13:00.873Z,5.40
2024-05-09T23:23:09.604Z,4.70
2024-05-09T23:33:16.060Z,5.45
2024-05-09T23:43:23.748Z,5.32
2024-05-09T23:53:28.679Z,5.88
